Time;durP1;ratioP1;P1;durP2;ratioP2;P2;SDS_P1;SDS_P2;PMS_P1;PMS_P2;Temp;Humidity;BMP_temperature;BMP_pressure;BME280_temperature;BME280_humidity;BME280_pressure;Samples;Min_cycle;Max_cycle;Signal;HPM_P1;HPM_P2
2024/01/18 00:01:50;;;;;;;5.13;4.73;;;;;;;;;;5022436;28;20331;-67
2024/01/18 00:04:17;;;;;;;5.13;4.73;;;;;;;;;;5013942;28;20204;-66
2024/01/18 00:06:45;;;;;;;6.37;5.77;;;;;;;;;;5021252;28;20208;-68
2024/01/18 00:09:12;;;;;;;5.57;5.07;;;;;;;;;;5021787;28;20223;-67
2024/01/18 00:11:39;;;;;;;5.60;5.10;;;;;;;;;;5020377;28;20196;-67
2024/01/18 00:14:07;;;;;;;5.73;5.23;;;;;;;;;;5019396;28;20193;-67
2024/01/18 00:16:34;;;;;;;5.60;5.10;;;;;;;;;;5015414;28;20211;-67
2024/01/18 00:19:01;;;;;;;5.80;5.20;;;;;;;;;;5016296;28;20258;-68
2024/01/18 00:21:29;;;;;;;6.27;5.67;;;;;;;;;;5021199;28;20248;-67
2024/01/18 00:23:57;;;;;;;5.90;5.40;;;;;;;;;;5017589;28;20196;-68
2024/01/18 00:26:24;;;;;;;6.03;5.43;;;;;;;;;;5018475;28;20514;-67
2024/01/18 00:28:51;;;;;;;5.57;5.07;;;;;;;;;;5018785;28;20292;-67
2024/01/18 00:31:18;;;;;;;6.20;5.60;;;;;;;;;;5019201;28;20192;-67
2024/01/18 00:33:45;;;;;;;6.40;5.80;;;;;;;;;;5017097;28;20295;-67
2024/01/18 00:36:13;;;;;;;6.07;5.47;;;;;;;;;;5017522;28;20292;-67
2024/01/18 00:38:40;;;;;;;6.07;5.50;;;;;;;;;;5021661;28;20263;-66
2024/01/18 00:41:08;;;;;;;5.83;5.33;;;;;;;;;;5017697;28;20205;-67
2024/01/18 00:43:36;;;;;;;5.40;4.90;;;;;;;;;;5019135;28;20274;-67
2024/01/18 00:46:07;;;;;;;5.33;4.83;;;;;;;;;;5022769;28;20201;-67
2024/01/18 00:48:34;;;;;;;6.83;5.40;;;;;;;;;;5018706;28;20199;-62
2024/01/18 00:51:02;;;;;;;6.40;5.80;;;;;;;;;;5027526;28;20192;-61
2024/01/18 00:53:29;;;;;;;5.30;4.80;;;;;;;;;;5026178;28;20200;-61
2024/01/18 00:55:56;;;;;;;6.07;5.50;;;;;;;;;;5024404;28;20290;-62
2024/01/18 00:58:25;;;;;;;5.90;5.40;;;;;;;;;;5029174;28;20295;-61
2024/01/18 01:00:52;;;;;;;6.17;5.63;;;;;;;;;;5024615;28;20213;-62
2024/01/18 01:03:19;;;;;;;5.73;5.23;;;;;;;;;;5023372;28;20236;-62
2024/01/18 01:05:46;;;;;;;5.53;5.03;;;;;;;;;;5021144;28;20197;-61
2024/01/18 01:08:13;;;;;;;5.93;5.43;;;;;;;;;;5025305;28;20201;-61
2024/01/18 01:10:40;;;;;;;5.80;5.30;;;;;;;;;;5022815;28;20189;-62
2024/01/18 01:13:09;;;;;;;5.30;4.80;;;;;;;;;;5025006;28;20200;-62
2024/01/18 01:15:37;;;;;;;5.07;4.60;;;;;;;;;;5020937;28;20197;-62
2024/01/18 01:18:05;;;;;;;5.10;4.70;;;;;;;;;;5026889;28;20208;-62
2024/01/18 01:20:32;;;;;;;4.90;4.50;;;;;;;;;;5022599;28;20196;-61
2024/01/18 01:22:59;;;;;;;5.23;4.73;;;;;;;;;;5021190;28;20203;-62
2024/01/18 01:25:26;;;;;;;4.80;4.40;;;;;;;;;;5025542;28;20200;-62
2024/01/18 01:27:53;;;;;;;5.50;5.00;;;;;;;;;;5026291;28;20197;-62
2024/01/18 01:30:20;;;;;;;5.47;4.97;;;;;;;;;;5023289;28;20205;-62
2024/01/18 01:32:50;;;;;;;5.23;4.73;;;;;;;;;;5022990;28;20197;-62
2024/01/18 01:35:17;;;;;;;4.90;4.50;;;;;;;;;;5023153;28;20201;-62
2024/01/18 01:37:44;;;;;;;5.47;4.97;;;;;;;;;;5025187;28;20205;-61
2024/01/18 01:40:11;;;;;;;5.33;4.83;;;;;;;;;;5020946;28;20202;-62
2024/01/18 01:42:38;;;;;;;5.43;4.93;;;;;;;;;;5024553;28;20219;-62
2024/01/18 01:45:06;;;;;;;5.43;5.03;;;;;;;;;;5022694;28;20211;-64
2024/01/18 01:47:33;;;;;;;4.83;4.43;;;;;;;;;;5023499;28;20200;-62
2024/01/18 01:50:02;;;;;;;5.20;4.70;;;;;;;;;;5021206;28;20204;-62
2024/01/18 01:52:30;;;;;;;5.23;4.73;;;;;;;;;;5025147;28;20218;-62
2024/01/18 01:54:57;;;;;;;5.20;4.77;;;;;;;;;;5018950;28;20204;-62
2024/01/18 01:57:25;;;;;;;5.50;5.00;;;;;;;;;;5023030;28;20201;-64
2024/01/18 01:59:52;;;;;;;5.70;5.20;;;;;;;;;;5023946;28;20204;-68
2024/01/18 02:02:21;;;;;;;5.50;5.00;;;;;;;;;;5027027;28;20242;-68
2024/01/18 02:04:49;;;;;;;5.00;4.60;;;;;;;;;;5017290;28;20300;-67
2024/01/18 02:07:18;;;;;;;5.23;4.83;;;;;;;;;;5020986;28;20207;-68
2024/01/18 02:09:46;;;;;;;6.43;5.37;;;;;;;;;;5023686;28;20208;-68
2024/01/18 02:12:13;;;;;;;5.53;5.03;;;;;;;;;;5022231;28;20201;-68
2024/01/18 02:14:41;;;;;;;5.23;4.83;;;;;;;;;;4992338;28;20211;-68
2024/01/18 02:17:08;;;;;;;5.70;5.20;;;;;;;;;;5024233;28;20212;-68
2024/01/18 02:19:35;;;;;;;5.43;4.93;;;;;;;;;;5019857;28;20209;-69
2024/01/18 02:22:03;;;;;;;4.97;4.50;;;;;;;;;;5022570;28;20231;-67
2024/01/18 02:24:33;;;;;;;5.63;5.13;;;;;;;;;;5025900;28;20200;-68
2024/01/18 02:27:01;;;;;;;5.60;5.10;;;;;;;;;;5022993;28;20219;-68
2024/01/18 02:29:29;;;;;;;5.80;5.20;;;;;;;;;;5021423;28;20216;-68
2024/01/18 02:31:56;;;;;;;5.43;4.93;;;;;;;;;;5017679;28;20272;-69
2024/01/18 02:34:24;;;;;;;5.63;5.00;;;;;;;;;;5024309;28;20203;-68
2024/01/18 02:36:51;;;;;;;5.47;5.07;;;;;;;;;;5018733;28;20201;-68
2024/01/18 02:39:18;;;;;;;5.37;4.87;;;;;;;;;;5020499;28;20291;-68
2024/01/18 02:41:45;;;;;;;5.73;5.23;;;;;;;;;;5022082;28;20212;-69
2024/01/18 02:44:15;;;;;;;5.53;5.03;;;;;;;;;;5019874;28;20204;-68
2024/01/18 02:46:43;;;;;;;5.60;5.10;;;;;;;;;;5019255;28;20236;-69
2024/01/18 02:49:10;;;;;;;5.53;5.03;;;;;;;;;;5024691;28;20209;-69
2024/01/18 02:51:37;;;;;;;5.63;5.13;;;;;;;;;;5019834;28;20207;-69
2024/01/18 02:54:04;;;;;;;5.20;4.70;;;;;;;;;;5022172;28;20207;-66
2024/01/18 02:56:31;;;;;;;5.23;4.70;;;;;;;;;;5026135;28;20236;-69
2024/01/18 02:58:58;;;;;;;5.43;4.93;;;;;;;;;;5021798;28;20208;-68
2024/01/18 03:01:27;;;;;;;5.47;4.97;;;;;;;;;;5020580;28;20223;-67
2024/01/18 03:03:54;;;;;;;5.20;4.70;;;;;;;;;;5020633;28;20207;-69
2024/01/18 03:06:21;;;;;;;5.47;4.97;;;;;;;;;;5025813;28;20196;-67
2024/01/18 03:08:48;;;;;;;5.20;4.80;;;;;;;;;;5015317;28;20220;-68
2024/01/18 03:11:15;;;;;;;5.20;4.70;;;;;;;;;;5020524;28;20192;-68
2024/01/18 03:13:42;;;;;;;4.57;4.17;;;;;;;;;;5024890;28;20204;-68
2024/01/18 03:16:11;;;;;;;4.60;4.20;;;;;;;;;;5020907;28;20196;-67
2024/01/18 03:18:42;;;;;;;4.13;3.73;;;;;;;;;;5026913;28;20223;-68
2024/01/18 03:21:09;;;;;;;4.00;3.70;;;;;;;;;;5023525;28;20193;-69
2024/01/18 03:23:36;;;;;;;4.00;3.60;;;;;;;;;;5024259;28;20214;-68
2024/01/18 03:26:03;;;;;;;3.53;3.23;;;;;;;;;;5021986;28;20197;-68
2024/01/18 03:28:30;;;;;;;3.40;3.10;;;;;;;;;;5022540;28;20211;-68
2024/01/18 03:30:57;;;;;;;3.83;3.53;;;;;;;;;;5025978;28;20223;-67
2024/01/18 03:33:24;;;;;;;3.20;2.90;;;;;;;;;;5027930;28;20200;-68
2024/01/18 03:35:53;;;;;;;3.40;3.10;;;;;;;;;;5020921;28;20211;-67
2024/01/18 03:38:20;;;;;;;3.27;3.00;;;;;;;;;;5025593;28;20203;-63
2024/01/18 03:40:48;;;;;;;4.40;3.80;;;;;;;;;;5024699;28;20207;-63
2024/01/18 03:43:15;;;;;;;3.53;3.00;;;;;;;;;;5017579;28;20217;-63
2024/01/18 03:45:43;;;;;;;3.53;3.23;;;;;;;;;;5018340;28;20201;-62
2024/01/18 03:48:10;;;;;;;3.43;3.13;;;;;;;;;;5023112;28;20219;-68
2024/01/18 03:50:37;;;;;;;3.70;3.40;;;;;;;;;;5016089;28;20240;-68
2024/01/18 03:53:05;;;;;;;3.37;3.07;;;;;;;;;;5020792;28;20283;-67
2024/01/18 03:55:33;;;;;;;3.00;2.80;;;;;;;;;;5022187;28;20212;-67
2024/01/18 03:58:00;;;;;;;4.03;3.63;;;;;;;;;;5011383;28;20207;-68
2024/01/18 04:00:27;;;;;;;3.63;3.33;;;;;;;;;;5022827;28;20243;-69
2024/01/18 04:02:54;;;;;;;3.13;2.93;;;;;;;;;;5021773;28;20240;-68
2024/01/18 04:05:21;;;;;;;3.30;3.00;;;;;;;;;;5018504;28;20204;-69
2024/01/18 04:07:48;;;;;;;3.33;3.03;;;;;;;;;;5023100;28;20201;-69
2024/01/18 04:10:17;;;;;;;3.23;2.93;;;;;;;;;;5019403;28;20201;-69
2024/01/18 04:12:44;;;;;;;3.33;3.03;;;;;;;;;;5022329;28;20205;-67
2024/01/18 04:15:11;;;;;;;3.20;2.90;;;;;;;;;;5017613;28;20196;-69
2024/01/18 04:17:38;;;;;;;3.40;3.10;;;;;;;;;;5016285;28;20205;-68
2024/01/18 04:20:06;;;;;;;3.40;3.10;;;;;;;;;;5027376;28;20200;-67
2024/01/18 04:22:33;;;;;;;3.03;2.83;;;;;;;;;;5022543;28;20216;-70
2024/01/18 04:25:00;;;;;;;3.20;3.00;;;;;;;;;;5019148;28;20204;-69
2024/01/18 04:27:29;;;;;;;3.30;3.00;;;;;;;;;;5025998;28;20219;-70
2024/01/18 04:29:56;;;;;;;3.27;2.97;;;;;;;;;;5020842;28;20204;-69
2024/01/18 04:32:23;;;;;;;2.80;2.60;;;;;;;;;;5024434;28;20214;-69
2024/01/18 04:34:51;;;;;;;2.97;2.70;;;;;;;;;;5025061;28;20273;-68
2024/01/18 04:37:18;;;;;;;2.70;2.50;;;;;;;;;;5021285;28;20196;-69
2024/01/18 04:39:45;;;;;;;3.20;2.90;;;;;;;;;;5020895;28;20232;-70
2024/01/18 04:42:12;;;;;;;3.53;2.77;;;;;;;;;;5025717;28;20216;-69
2024/01/18 04:44:41;;;;;;;3.00;2.77;;;;;;;;;;5023265;28;20214;-67
2024/01/18 04:47:09;;;;;;;3.00;2.70;;;;;;;;;;5019356;28;20207;-68
2024/01/18 04:49:36;;;;;;;3.23;2.67;;;;;;;;;;5022034;28;20219;-67
2024/01/18 04:52:03;;;;;;;2.67;2.47;;;;;;;;;;5027255;28;20200;-67
2024/01/18 04:54:32;;;;;;;3.53;2.90;;;;;;;;;;5027815;28;20204;-67
2024/01/18 04:56:59;;;;;;;2.60;2.40;;;;;;;;;;5025016;28;20250;-67
2024/01/18 04:59:27;;;;;;;2.63;2.43;;;;;;;;;;5028848;28;20215;-68
2024/01/18 05:01:56;;;;;;;2.87;2.60;;;;;;;;;;5023741;28;20237;-68
2024/01/18 05:04:23;;;;;;;2.60;2.40;;;;;;;;;;5019741;28;20200;-68
2024/01/18 05:06:50;;;;;;;2.63;2.40;;;;;;;;;;5024787;28;20239;-67
2024/01/18 05:09:17;;;;;;;2.57;2.37;;;;;;;;;;5024965;28;20208;-67
2024/01/18 05:11:44;;;;;;;2.60;2.40;;;;;;;;;;5026429;28;20200;-67
2024/01/18 05:14:12;;;;;;;2.33;2.13;;;;;;;;;;5022869;28;20207;-68
2024/01/18 05:16:40;;;;;;;2.30;2.10;;;;;;;;;;5022318;28;20200;-67
2024/01/18 05:19:09;;;;;;;2.60;2.40;;;;;;;;;;5024698;28;20212;-69
2024/01/18 05:21:36;;;;;;;3.10;2.80;;;;;;;;;;5020921;28;20360;-67
2024/01/18 05:24:03;;;;;;;2.47;2.27;;;;;;;;;;5024843;28;20227;-67
2024/01/18 05:26:30;;;;;;;3.00;2.70;;;;;;;;;;5025526;28;20335;-67
2024/01/18 05:28:57;;;;;;;2.67;2.33;;;;;;;;;;5027475;28;20207;-63
2024/01/18 05:31:25;;;;;;;3.07;2.77;;;;;;;;;;5025110;28;20235;-63
2024/01/18 05:33:52;;;;;;;3.23;2.40;;;;;;;;;;5023978;28;20205;-63
2024/01/18 05:36:21;;;;;;;2.57;2.37;;;;;;;;;;5024821;28;20211;-63
2024/01/18 05:38:48;;;;;;;2.53;2.33;;;;;;;;;;5021981;28;20205;-64
2024/01/18 05:41:15;;;;;;;3.40;3.00;;;;;;;;;;5024998;28;20215;-63
2024/01/18 05:43:42;;;;;;;4.03;3.07;;;;;;;;;;5026815;28;20216;-63
2024/01/18 05:46:09;;;;;;;3.50;2.50;;;;;;;;;;5024660;28;20204;-63
2024/01/18 05:48:36;;;;;;;3.30;2.80;;;;;;;;;;5025422;28;20207;-63
2024/01/18 05:51:04;;;;;;;3.50;3.03;;;;;;;;;;5020867;28;20221;-63
2024/01/18 05:53:32;;;;;;;3.50;3.20;;;;;;;;;;5024778;28;20230;-63
2024/01/18 05:56:00;;;;;;;4.10;3.53;;;;;;;;;;5023712;28;20227;-63
2024/01/18 05:58:30;;;;;;;3.87;3.50;;;;;;;;;;5020378;28;20201;-63
2024/01/18 06:00:57;;;;;;;3.87;3.43;;;;;;;;;;5022775;28;20204;-63
2024/01/18 06:03:25;;;;;;;4.40;3.80;;;;;;;;;;5016845;28;20240;-63
2024/01/18 06:05:52;;;;;;;4.90;4.07;;;;;;;;;;5024056;28;20207;-63
2024/01/18 06:08:19;;;;;;;4.83;4.30;;;;;;;;;;5022067;28;20204;-62
2024/01/18 06:10:48;;;;;;;6.37;4.30;;;;;;;;;;5020776;28;20215;-63
2024/01/18 06:13:15;;;;;;;5.20;4.43;;;;;;;;;;5021061;28;20212;-64
2024/01/18 06:15:43;;;;;;;4.97;4.37;;;;;;;;;;5021921;28;20299;-63
2024/01/18 06:18:10;;;;;;;5.37;4.67;;;;;;;;;;5024187;28;20286;-64
2024/01/18 06:20:37;;;;;;;5.00;4.30;;;;;;;;;;5022268;28;20201;-63
2024/01/18 06:23:04;;;;;;;5.93;5.00;;;;;;;;;;5023640;28;20247;-63
2024/01/18 06:25:32;;;;;;;6.90;5.60;;;;;;;;;;5023886;28;20235;-63
2024/01/18 06:28:01;;;;;;;6.90;5.93;;;;;;;;;;5023416;28;20197;-64
2024/01/18 06:30:28;;;;;;;6.37;5.77;;;;;;;;;;5022875;28;20203;-64
2024/01/18 06:32:56;;;;;;;7.53;6.30;;;;;;;;;;5026158;28;20192;-63
2024/01/18 06:35:23;;;;;;;8.07;6.40;;;;;;;;;;5018641;28;20212;-64
2024/01/18 06:37:50;;;;;;;9.00;6.87;;;;;;;;;;5019008;28;20266;-65
2024/01/18 06:40:18;;;;;;;10.43;7.97;;;;;;;;;;5019491;28;20255;-68
2024/01/18 06:42:46;;;;;;;11.03;8.57;;;;;;;;;;5023793;28;20222;-67
2024/01/18 06:45:14;;;;;;;12.03;9.37;;;;;;;;;;5019114;28;20204;-68
2024/01/18 06:47:42;;;;;;;13.47;10.10;;;;;;;;;;5024851;28;20205;-67
2024/01/18 06:50:13;;;;;;;13.93;10.90;;;;;;;;;;5019570;28;20200;-67
2024/01/18 06:52:40;;;;;;;14.73;10.70;;;;;;;;;;5019727;28;20200;-67
2024/01/18 06:55:08;;;;;;;15.83;12.03;;;;;;;;;;5014871;28;20247;-67
2024/01/18 06:57:35;;;;;;;17.50;12.00;;;;;;;;;;5019546;28;20209;-66
2024/01/18 07:00:03;;;;;;;15.27;11.33;;;;;;;;;;5017810;28;20211;-66
2024/01/18 07:02:33;;;;;;;15.57;11.57;;;;;;;;;;5016251;28;21444;-66
2024/01/18 07:05:00;;;;;;;14.70;11.50;;;;;;;;;;5017406;28;20197;-69
2024/01/18 07:07:27;;;;;;;14.93;11.77;;;;;;;;;;5018516;28;20215;-67
2024/01/18 07:09:56;;;;;;;15.30;11.83;;;;;;;;;;5015910;28;20204;-66
2024/01/18 07:12:24;;;;;;;13.27;10.97;;;;;;;;;;5015288;28;20216;-67
2024/01/18 07:14:52;;;;;;;17.47;12.20;;;;;;;;;;5016109;28;20275;-66
2024/01/18 07:17:19;;;;;;;16.63;12.93;;;;;;;;;;5017448;28;20276;-67
2024/01/18 07:19:49;;;;;;;17.80;12.73;;;;;;;;;;5018119;28;20205;-67
2024/01/18 07:22:16;;;;;;;16.87;12.70;;;;;;;;;;5021234;28;20208;-66
2024/01/18 07:24:43;;;;;;;16.13;13.10;;;;;;;;;;5020199;28;20220;-67
2024/01/18 07:27:11;;;;;;;17.87;13.53;;;;;;;;;;5017726;28;20203;-66
2024/01/18 07:29:39;;;;;;;17.37;13.53;;;;;;;;;;5016849;28;20299;-67
2024/01/18 07:32:06;;;;;;;17.20;13.20;;;;;;;;;;5023807;28;20254;-66
2024/01/18 07:34:34;;;;;;;17.07;13.33;;;;;;;;;;5022941;28;20200;-66
2024/01/18 07:37:03;;;;;;;16.80;13.00;;;;;;;;;;5013617;28;20261;-66
2024/01/18 07:39:32;;;;;;;15.57;12.73;;;;;;;;;;5009354;28;20214;-67
2024/01/18 07:42:00;;;;;;;18.03;12.90;;;;;;;;;;5017349;28;20204;-67
2024/01/18 07:44:28;;;;;;;17.00;13.07;;;;;;;;;;5021966;28;20227;-67
2024/01/18 07:46:55;;;;;;;17.00;12.63;;;;;;;;;;5021991;28;20298;-67
2024/01/18 07:49:22;;;;;;;17.73;13.30;;;;;;;;;;5019682;28;20569;-66
2024/01/18 07:51:51;;;;;;;17.87;13.43;;;;;;;;;;5018517;28;20207;-66
2024/01/18 07:54:19;;;;;;;15.43;12.77;;;;;;;;;;5023934;28;20242;-66
2024/01/18 07:56:47;;;;;;;17.70;14.03;;;;;;;;;;5023235;28;20203;-66
2024/01/18 07:59:14;;;;;;;17.60;13.43;;;;;;;;;;5023217;28;20208;-66
2024/01/18 08:01:43;;;;;;;19.00;15.07;;;;;;;;;;5022981;28;20286;-65
2024/01/18 08:04:10;;;;;;;20.97;15.20;;;;;;;;;;5021407;28;20220;-66
2024/01/18 08:06:37;;;;;;;18.27;14.50;;;;;;;;;;5025862;28;20215;-67
2024/01/18 08:09:04;;;;;;;21.47;15.03;;;;;;;;;;5017191;28;20222;-67
2024/01/18 08:11:32;;;;;;;18.47;13.73;;;;;;;;;;5019921;28;20215;-67
2024/01/18 08:14:00;;;;;;;17.37;13.80;;;;;;;;;;5020722;28;20203;-67
2024/01/18 08:16:27;;;;;;;18.80;14.53;;;;;;;;;;5013298;28;20201;-66
2024/01/18 08:18:55;;;;;;;24.93;17.07;;;;;;;;;;5015249;28;20211;-67
2024/01/18 08:21:23;;;;;;;20.77;15.70;;;;;;;;;;5014113;28;20223;-67
2024/01/18 08:23:50;;;;;;;22.37;15.43;;;;;;;;;;5017267;28;20212;-67
2024/01/18 08:26:17;;;;;;;20.40;16.03;;;;;;;;;;5015006;28;20204;-66
2024/01/18 08:28:46;;;;;;;21.07;15.97;;;;;;;;;;5018880;28;20226;-67
2024/01/18 08:31:13;;;;;;;20.00;15.53;;;;;;;;;;5018531;28;20208;-66
2024/01/18 08:33:41;;;;;;;20.50;15.53;;;;;;;;;;5018396;28;20204;-67
2024/01/18 08:36:08;;;;;;;18.53;15.00;;;;;;;;;;5022143;28;20216;-66
2024/01/18 08:38:35;;;;;;;17.70;13.77;;;;;;;;;;5018372;28;20295;-66
2024/01/18 08:41:02;;;;;;;18.90;15.17;;;;;;;;;;5018770;28;20202;-66
2024/01/18 08:43:31;;;;;;;17.47;13.77;;;;;;;;;;5020061;28;20238;-67
2024/01/18 08:46:01;;;;;;;18.83;15.13;;;;;;;;;;5015754;28;20295;-66
2024/01/18 08:48:28;;;;;;;17.83;13.93;;;;;;;;;;5019671;28;20207;-67
2024/01/18 08:50:55;;;;;;;17.07;13.90;;;;;;;;;;5016352;28;20200;-66
2024/01/18 08:53:23;;;;;;;16.07;13.20;;;;;;;;;;5016189;28;20204;-66
2024/01/18 08:55:50;;;;;;;15.53;12.97;;;;;;;;;;5018680;28;20261;-66
2024/01/18 08:58:18;;;;;;;15.97;12.40;;;;;;;;;;5019001;28;20266;-67
2024/01/18 09:00:45;;;;;;;16.60;12.93;;;;;;;;;;5019279;28;20290;-62
2024/01/18 09:03:15;;;;;;;16.50;13.47;;;;;;;;;;5023852;28;20248;-63
2024/01/18 09:05:42;;;;;;;14.93;12.33;;;;;;;;;;5026915;28;20205;-62
2024/01/18 09:08:10;;;;;;;17.33;13.70;;;;;;;;;;5024325;28;20286;-62
2024/01/18 09:10:37;;;;;;;16.53;13.10;;;;;;;;;;5027175;28;20300;-63
2024/01/18 09:13:07;;;;;;;16.17;12.87;;;;;;;;;;5025940;28;20204;-63
2024/01/18 09:15:36;;;;;;;16.03;13.00;;;;;;;;;;5024591;28;20265;-63
2024/01/18 09:18:05;;;;;;;19.47;13.40;;;;;;;;;;5020233;28;20204;-64
2024/01/18 09:20:37;;;;;;;15.63;12.73;;;;;;;;;;5023872;28;20208;-62
2024/01/18 09:23:04;;;;;;;16.30;13.20;;;;;;;;;;5021616;28;20223;-63
2024/01/18 09:25:31;;;;;;;16.70;12.50;;;;;;;;;;5019122;28;20349;-62
2024/01/18 09:27:58;;;;;;;16.17;13.17;;;;;;;;;;5018598;28;20285;-63
2024/01/18 09:30:26;;;;;;;16.67;13.67;;;;;;;;;;5020880;28;20208;-62
2024/01/18 09:32:54;;;;;;;15.57;13.10;;;;;;;;;;5024116;28;20214;-62
2024/01/18 09:35:21;;;;;;;16.10;13.43;;;;;;;;;;5024297;28;20208;-62
2024/01/18 09:37:50;;;;;;;19.00;14.40;;;;;;;;;;5029260;28;20214;-63
2024/01/18 09:40:17;;;;;;;18.03;14.00;;;;;;;;;;5024356;28;20209;-63
2024/01/18 09:42:46;;;;;;;15.37;12.30;;;;;;;;;;5027979;28;20211;-63
2024/01/18 09:45:14;;;;;;;13.83;11.63;;;;;;;;;;5024335;28;20276;-63
2024/01/18 09:47:42;;;;;;;12.37;10.50;;;;;;;;;;5022340;28;20291;-62
2024/01/18 09:50:10;;;;;;;12.67;10.43;;;;;;;;;;5021559;28;20204;-64
2024/01/18 09:52:37;;;;;;;14.50;12.07;;;;;;;;;;5027873;28;20258;-63
2024/01/18 09:55:08;;;;;;;13.50;11.43;;;;;;;;;;5028292;28;20262;-62
2024/01/18 09:57:37;;;;;;;13.83;11.97;;;;;;;;;;5026463;28;20200;-62
2024/01/18 10:00:05;;;;;;;14.40;11.53;;;;;;;;;;5020987;28;20238;-63
2024/01/18 10:02:33;;;;;;;15.03;12.00;;;;;;;;;;5021694;28;20240;-63
2024/01/18 10:05:01;;;;;;;13.80;11.47;;;;;;;;;;5018400;28;20213;-63
2024/01/18 10:07:28;;;;;;;15.07;11.50;;;;;;;;;;5020920;28;20201;-63
2024/01/18 10:09:55;;;;;;;13.90;11.90;;;;;;;;;;5025184;28;20196;-66
2024/01/18 10:12:32;;;;;;;11.73;10.53;;;;;;;;;;5025400;28;20193;-66
2024/01/18 10:14:59;;;;;;;14.00;11.13;;;;;;;;;;5026704;28;20200;-66
2024/01/18 10:17:28;;;;;;;14.00;11.33;;;;;;;;;;5017424;28;20213;-66
2024/01/18 10:19:56;;;;;;;14.47;11.67;;;;;;;;;;5022544;28;20243;-66
2024/01/18 10:22:24;;;;;;;16.07;12.70;;;;;;;;;;5027066;28;20211;-66
2024/01/18 10:24:52;;;;;;;16.97;13.37;;;;;;;;;;5021144;28;20219;-66
2024/01/18 10:27:20;;;;;;;14.03;11.93;;;;;;;;;;5019697;28;20192;-66
2024/01/18 10:29:48;;;;;;;13.53;11.23;;;;;;;;;;5022322;28;20259;-66
2024/01/18 10:32:16;;;;;;;17.80;14.57;;;;;;;;;;5019099;28;20292;-66
2024/01/18 10:34:43;;;;;;;18.13;14.90;;;;;;;;;;5020117;28;20201;-66
2024/01/18 10:37:15;;;;;;;17.63;14.53;;;;;;;;;;5018912;28;20280;-66
2024/01/18 10:39:43;;;;;;;14.93;13.33;;;;;;;;;;5007747;28;20203;-66
2024/01/18 10:42:12;;;;;;;13.77;11.23;;;;;;;;;;5007149;28;20200;-66
2024/01/18 10:44:40;;;;;;;15.77;13.27;;;;;;;;;;5019317;28;20216;-66
2024/01/18 10:47:12;;;;;;;15.67;12.20;;;;;;;;;;5019931;28;20236;-66
2024/01/18 10:49:40;;;;;;;21.57;16.57;;;;;;;;;;5022283;28;20254;-66
2024/01/18 10:52:09;;;;;;;17.27;14.20;;;;;;;;;;5022050;28;20226;-66
2024/01/18 10:54:37;;;;;;;23.10;17.57;;;;;;;;;;5020064;28;20196;-66
2024/01/18 10:57:06;;;;;;;12.60;10.23;;;;;;;;;;5021473;28;20211;-66
2024/01/18 10:59:34;;;;;;;12.03;10.33;;;;;;;;;;5019164;28;20200;-66
2024/01/18 11:02:01;;;;;;;12.67;9.53;;;;;;;;;;5018400;28;20267;-66
2024/01/18 11:04:31;;;;;;;16.53;10.73;;;;;;;;;;5019860;28;20236;-66
2024/01/18 11:07:00;;;;;;;12.73;10.43;;;;;;;;;;5024280;28;20204;-66
2024/01/18 11:09:29;;;;;;;11.67;9.47;;;;;;;;;;5016013;28;20201;-66
2024/01/18 11:11:57;;;;;;;13.90;10.73;;;;;;;;;;5019219;28;20200;-66
2024/01/18 11:14:26;;;;;;;14.27;9.87;;;;;;;;;;5021893;28;20208;-66
2024/01/18 11:16:54;;;;;;;13.67;11.63;;;;;;;;;;5018925;28;20199;-66
2024/01/18 11:19:40;;;;;;;15.53;11.47;;;;;;;;;;5017677;28;20213;-62
2024/01/18 11:22:11;;;;;;;12.87;9.97;;;;;;;;;;5020044;28;20205;-62
2024/01/18 11:24:39;;;;;;;13.60;8.93;;;;;;;;;;5018128;28;20224;-62
2024/01/18 11:27:19;;;;;;;14.90;10.43;;;;;;;;;;5021958;28;20212;-63
2024/01/18 11:29:47;;;;;;;13.03;9.30;;;;;;;;;;5019396;28;20200;-62
2024/01/18 11:32:15;;;;;;;15.67;9.23;;;;;;;;;;5022944;28;20278;-63
2024/01/18 11:34:42;;;;;;;13.07;9.20;;;;;;;;;;5019070;28;20260;-62
2024/01/18 11:37:12;;;;;;;11.90;8.97;;;;;;;;;;5018160;28;20203;-63
2024/01/18 11:39:55;;;;;;;13.53;8.43;;;;;;;;;;5021566;28;20192;-62
2024/01/18 11:42:23;;;;;;;12.97;8.77;;;;;;;;;;5014558;28;20216;-62
2024/01/18 11:44:51;;;;;;;16.80;8.93;;;;;;;;;;5017773;28;20215;-62
2024/01/18 11:47:19;;;;;;;11.33;8.03;;;;;;;;;;5017985;28;20222;-62
2024/01/18 11:49:46;;;;;;;10.73;8.10;;;;;;;;;;5023128;28;20323;-63
2024/01/18 11:52:17;;;;;;;11.20;8.00;;;;;;;;;;5017557;28;20207;-62
2024/01/18 11:54:44;;;;;;;8.83;6.80;;;;;;;;;;5022554;28;20196;-63
2024/01/18 11:57:13;;;;;;;11.77;7.63;;;;;;;;;;5017384;28;20196;-63
2024/01/18 11:59:42;;;;;;;10.63;7.93;;;;;;;;;;5018978;28;20267;-62
2024/01/18 12:02:09;;;;;;;13.67;8.47;;;;;;;;;;5018171;28;20271;-62
2024/01/18 12:04:37;;;;;;;11.83;8.27;;;;;;;;;;5018320;28;20244;-62
2024/01/18 12:07:04;;;;;;;10.30;7.77;;;;;;;;;;5010971;28;20209;-62
2024/01/18 12:09:33;;;;;;;12.53;8.20;;;;;;;;;;5007097;28;20207;-62
2024/01/18 12:12:00;;;;;;;14.00;8.20;;;;;;;;;;5007898;28;20224;-63
2024/01/18 12:14:28;;;;;;;11.07;7.67;;;;;;;;;;5007297;28;20193;-63
2024/01/18 12:16:56;;;;;;;10.30;7.17;;;;;;;;;;5015218;28;20196;-62
2024/01/18 12:19:31;;;;;;;14.90;10.20;;;;;;;;;;5020589;28;20212;-61
2024/01/18 12:21:58;;;;;;;14.13;8.33;;;;;;;;;;5023596;28;20231;-63
2024/01/18 12:24:26;;;;;;;13.07;9.13;;;;;;;;;;5018502;28;20224;-62
2024/01/18 12:26:55;;;;;;;14.50;9.60;;;;;;;;;;5019879;28;20200;-62
2024/01/18 12:29:22;;;;;;;12.23;9.20;;;;;;;;;;5022085;28;20208;-66
2024/01/18 12:31:50;;;;;;;11.73;8.10;;;;;;;;;;5018740;28;20200;-65
2024/01/18 12:34:19;;;;;;;11.73;8.47;;;;;;;;;;5015048;28;20200;-65
2024/01/18 12:36:46;;;;;;;14.23;8.47;;;;;;;;;;5020348;28;20250;-65
2024/01/18 12:39:14;;;;;;;12.03;9.20;;;;;;;;;;5021473;28;20205;-66
2024/01/18 12:41:42;;;;;;;13.03;8.43;;;;;;;;;;5008989;28;20235;-65
2024/01/18 12:44:11;;;;;;;11.80;7.77;;;;;;;;;;5008526;28;20309;-66
2024/01/18 12:46:39;;;;;;;10.40;7.70;;;;;;;;;;5010328;28;20254;-66
2024/01/18 12:49:07;;;;;;;8.80;7.10;;;;;;;;;;5011235;28;20200;-66
2024/01/18 12:51:35;;;;;;;10.77;7.80;;;;;;;;;;5014530;28;20228;-66
2024/01/18 12:54:02;;;;;;;12.87;8.10;;;;;;;;;;5012420;28;20196;-66
2024/01/18 12:56:30;;;;;;;11.53;7.47;;;;;;;;;;5016233;28;20259;-66
2024/01/18 12:58:57;;;;;;;13.60;8.53;;;;;;;;;;5015561;28;20224;-66
2024/01/18 13:01:27;;;;;;;14.83;8.10;;;;;;;;;;5017856;28;20209;-65
2024/01/18 13:04:09;;;;;;;11.57;7.17;;;;;;;;;;5009893;28;20232;-66
2024/01/18 13:06:37;;;;;;;9.87;7.00;;;;;;;;;;5009878;28;20212;-66
2024/01/18 13:09:06;;;;;;;10.43;7.17;;;;;;;;;;5009893;28;20204;-66
2024/01/18 13:11:33;;;;;;;10.47;7.43;;;;;;;;;;5022495;28;20219;-66
2024/01/18 13:14:04;;;;;;;11.87;8.07;;;;;;;;;;5022571;28;20204;-66
2024/01/18 13:16:33;;;;;;;9.83;6.77;;;;;;;;;;5021642;28;20219;-66
2024/01/18 13:19:01;;;;;;;19.27;10.37;;;;;;;;;;5024406;28;20207;-65
2024/01/18 13:21:28;;;;;;;15.73;10.37;;;;;;;;;;5019056;28;20255;-66
2024/01/18 13:23:56;;;;;;;14.93;9.17;;;;;;;;;;5022179;28;20208;-66
2024/01/18 13:26:23;;;;;;;10.83;7.20;;;;;;;;;;5014331;28;20294;-66
2024/01/18 13:28:50;;;;;;;17.60;10.43;;;;;;;;;;5011732;28;20259;-66
2024/01/18 13:31:19;;;;;;;8.40;5.23;;;;;;;;;;5007951;28;20201;-66
2024/01/18 13:33:47;;;;;;;11.23;7.23;;;;;;;;;;5007571;28;20213;-66
2024/01/18 13:36:15;;;;;;;6.97;4.73;;;;;;;;;;5019903;28;20211;-66
2024/01/18 13:38:42;;;;;;;7.30;5.00;;;;;;;;;;5022870;28;20224;-66
2024/01/18 13:41:09;;;;;;;10.33;7.00;;;;;;;;;;5026609;28;20234;-66
2024/01/18 13:43:36;;;;;;;12.67;7.80;;;;;;;;;;5019553;28;20207;-65
2024/01/18 13:46:04;;;;;;;12.37;8.37;;;;;;;;;;5017869;28;20216;-66
2024/01/18 13:48:32;;;;;;;22.40;13.10;;;;;;;;;;5017042;28;20292;-65
2024/01/18 13:51:01;;;;;;;16.17;8.53;;;;;;;;;;5020415;28;20202;-65
2024/01/18 13:53:28;;;;;;;18.30;10.93;;;;;;;;;;5020334;28;20196;-66
2024/01/18 13:55:56;;;;;;;13.70;8.13;;;;;;;;;;5014265;28;20211;-66
2024/01/18 13:58:23;;;;;;;10.20;6.47;;;;;;;;;;5009930;28;20199;-66
2024/01/18 14:00:50;;;;;;;13.03;8.63;;;;;;;;;;5007450;28;20205;-66
2024/01/18 14:03:19;;;;;;;17.97;10.27;;;;;;;;;;5011137;28;20235;-65
2024/01/18 14:05:46;;;;;;;10.33;6.90;;;;;;;;;;5010295;28;20217;-66
2024/01/18 14:08:15;;;;;;;9.13;6.70;;;;;;;;;;5006937;28;20204;-66
2024/01/18 14:10:43;;;;;;;13.20;10.00;;;;;;;;;;5004362;28;20209;-66
2024/01/18 14:13:10;;;;;;;10.10;8.90;;;;;;;;;;5014673;28;20200;-66
2024/01/18 14:15:38;;;;;;;11.87;7.53;;;;;;;;;;5016346;28;20205;-66
2024/01/18 14:18:06;;;;;;;8.93;6.73;;;;;;;;;;5016817;28;20210;-66
2024/01/18 14:20:33;;;;;;;8.07;6.20;;;;;;;;;;5019887;28;20197;-67
2024/01/18 14:23:01;;;;;;;14.20;11.03;;;;;;;;;;5019041;28;20212;-66
2024/01/18 14:25:29;;;;;;;11.87;8.30;;;;;;;;;;5022962;28;20213;-66
2024/01/18 14:27:56;;;;;;;10.37;8.47;;;;;;;;;;5024473;28;20203;-66
2024/01/18 14:30:23;;;;;;;12.27;8.43;;;;;;;;;;5023308;28;20208;-65
2024/01/18 14:32:51;;;;;;;9.77;7.43;;;;;;;;;;5022052;28;20215;-65
2024/01/18 14:35:19;;;;;;;9.60;6.60;;;;;;;;;;5019326;28;20224;-66